Snow Lake, Arkansas
Current Conditions -  °F | °C
As of 12:35 PM on Sunday 21 Dec 2014 (Local Time) from KRNV Reporting Station
Clear Clear  
Wind Chill: 56°   Ceiling: Unl
Heat Index: 56°   Visibility: 10mi
Dew Point: 37°   Wind: 8mph
Humidity: 48%   Direction: 120°ESE
Pressure: 30.08"   Gusts: NA
Location:  34.06°N, 91.02°W
Report Text: KRNV 211835Z AUTO 12007KT 10SM CLR 13/03 A3008 RMK AO2 T01340026
Loading
Personal Weather Stations






























Interactive Weather Map New forecast layout! Learn more

10-Day Weather Forecast

Advertisements
Track Severe Weather on mobile